createdAt,value
2023-02-14T00:32:05.398Z,0
2023-02-14T00:32:46.099Z,0
2023-02-14T00:33:27.110Z,0
2023-02-14T00:34:08.029Z,0
2023-02-14T00:34:49.154Z,0
2023-02-14T00:35:30.141Z,0
2023-02-14T00:38:55.058Z,0
2023-02-14T00:39:36.031Z,0
2023-02-14T00:40:17.003Z,0
2023-02-14T00:43:30.720Z,0
2023-02-14T00:44:11.171Z,0
2023-02-14T00:44:51.728Z,0
2023-02-14T00:45:32.201Z,0
2023-02-14T00:46:12.670Z,0
2023-02-14T00:46:53.160Z,0
2023-02-14T00:47:33.642Z,0
2023-02-14T00:48:54.594Z,0
2023-02-14T00:49:35.041Z,0
2023-02-14T00:50:15.565Z,0
2023-02-14T00:57:00.447Z,0
2023-02-14T00:57:40.932Z,0
2023-02-14T00:58:21.422Z,0
2023-02-14T00:59:01.922Z,0
2023-02-14T00:59:42.423Z,0
2023-02-14T01:00:22.911Z,0
2023-02-14T01:01:03.497Z,0
2023-02-14T01:01:43.939Z,0
2023-02-14T01:02:24.481Z,0
2023-02-14T01:03:04.954Z,0
2023-02-14T01:03:45.431Z,0
2023-02-14T01:11:10.857Z,0
2023-02-14T01:11:51.411Z,0
2023-02-14T01:12:31.875Z,0
2023-02-14T01:13:12.408Z,0
2023-02-14T01:13:52.916Z,0
2023-02-14T01:14:33.435Z,0
2023-02-14T01:15:13.888Z,0
2023-02-14T01:15:54.434Z,0
2023-02-14T01:16:34.963Z,0
2023-02-14T01:17:15.449Z,0
2023-02-14T01:21:16.351Z,0
2023-02-14T01:21:56.309Z,0
2023-02-14T01:22:36.778Z,0
2023-02-14T01:23:17.261Z,0
2023-02-14T01:23:57.744Z,0
2023-02-14T01:24:38.214Z,0
2023-02-14T01:25:18.710Z,0
2023-02-14T01:25:59.831Z,0
2023-02-14T01:26:39.672Z,0
2023-02-14T01:27:20.176Z,0
2023-02-14T01:28:00.680Z,0
2023-02-14T01:34:45.711Z,0
2023-02-14T01:35:26.199Z,0
2023-02-14T01:36:06.688Z,0
2023-02-14T01:36:47.221Z,0
2023-02-14T01:37:27.635Z,0
2023-02-14T01:38:08.184Z,0
2023-02-14T01:38:48.674Z,0
2023-02-14T01:39:29.248Z,0
2023-02-14T01:40:09.718Z,0
2023-02-14T01:40:50.157Z,0
2023-02-14T01:41:30.708Z,0
2023-02-14T01:48:12.642Z,0
2023-02-14T01:48:53.010Z,0
2023-02-14T01:49:33.487Z,0
2023-02-14T01:50:13.984Z,0
2023-02-14T01:50:54.542Z,0
2023-02-14T01:51:35.005Z,0
2023-02-14T01:52:15.524Z,0
2023-02-14T01:52:55.979Z,0
2023-02-14T01:53:36.446Z,0
2023-02-14T01:54:16.920Z,0
2023-02-14T02:01:42.342Z,0
2023-02-14T02:02:22.850Z,0
2023-02-14T02:03:03.283Z,0
2023-02-14T02:03:43.806Z,0
2023-02-14T02:04:24.251Z,0
2023-02-14T02:05:04.721Z,0
2023-02-14T02:05:45.201Z,0
2023-02-14T02:06:25.689Z,0
2023-02-14T02:07:06.175Z,0
2023-02-14T02:07:46.655Z,0
2023-02-14T02:08:27.153Z,0
2023-02-14T02:15:11.972Z,0
2023-02-14T02:15:52.450Z,0
2023-02-14T02:16:32.937Z,0
2023-02-14T02:17:13.485Z,0
2023-02-14T02:17:53.952Z,0
2023-02-14T02:18:34.376Z,0
2023-02-14T02:19:14.874Z,0
2023-02-14T02:19:55.402Z,0
2023-02-14T02:20:35.882Z,0
2023-02-14T02:21:16.353Z,0
2023-02-14T02:21:56.839Z,0
2023-02-14T02:22:37.321Z,0
2023-02-14T02:29:22.151Z,0
2023-02-14T02:30:43.246Z,0
2023-02-14T02:31:23.784Z,0
2023-02-14T02:32:04.242Z,0
2023-02-14T02:33:25.072Z,0
2023-02-14T02:34:05.557Z,0
2023-02-14T02:34:46.079Z,0
2023-02-14T02:35:26.518Z,0
2023-02-14T02:36:07.121Z,0
2023-02-14T02:43:32.426Z,0
2023-02-14T02:44:12.845Z,0
2023-02-14T02:44:53.351Z,0
2023-02-14T02:45:33.818Z,0
2023-02-14T02:46:14.499Z,0
2023-02-14T02:46:54.799Z,0
2023-02-14T02:47:35.276Z,0
2023-02-14T02:48:15.755Z,0
2023-02-14T02:48:56.246Z,0
2023-02-14T02:49:36.699Z,0
2023-02-14T02:50:17.188Z,0
2023-02-14T02:57:02.030Z,0
2023-02-14T02:57:42.539Z,0
2023-02-14T02:58:22.980Z,0
2023-02-14T03:00:41.654Z,0
2023-02-14T03:01:21.421Z,0
2023-02-14T03:02:01.875Z,0
2023-02-14T03:02:42.337Z,0
2023-02-14T03:03:22.811Z,0
2023-02-14T03:04:03.293Z,0
2023-02-14T03:05:24.240Z,0
2023-02-14T03:06:04.722Z,0
2023-02-14T03:06:45.192Z,0
2023-02-14T03:07:25.664Z,0
2023-02-14T03:13:30.978Z,0
2023-02-14T03:14:11.411Z,0
2023-02-14T03:14:51.866Z,0
2023-02-14T03:15:32.371Z,0
2023-02-14T03:16:12.916Z,0
2023-02-14T03:16:53.309Z,0
2023-02-14T03:17:33.790Z,0
2023-02-14T03:18:14.237Z,0
2023-02-14T03:18:54.721Z,0
2023-02-14T03:19:35.256Z,0
2023-02-14T03:20:15.758Z,0
2023-02-14T03:27:00.506Z,0
2023-02-14T03:27:40.990Z,0
2023-02-14T03:28:21.450Z,0
2023-02-14T03:29:01.948Z,0
2023-02-14T03:29:42.419Z,0
2023-02-14T03:30:22.924Z,0
2023-02-14T03:31:03.904Z,0
2023-02-14T03:31:43.911Z,0
2023-02-14T03:32:24.321Z,0
2023-02-14T03:33:04.811Z,0
2023-02-14T03:33:45.260Z,0
2023-02-14T03:34:25.731Z,0
2023-02-14T03:41:50.984Z,0
2023-02-14T03:42:31.438Z,0
2023-02-14T03:43:11.894Z,0
2023-02-14T03:43:52.367Z,0
2023-02-14T03:44:32.813Z,0
2023-02-14T03:45:13.370Z,0
2023-02-14T03:45:53.771Z,0
2023-02-14T03:46:34.267Z,0
2023-02-14T03:47:14.772Z,0
2023-02-14T03:47:55.217Z,0
2023-02-14T03:48:35.684Z,0
2023-02-14T03:56:00.973Z,0
2023-02-14T03:56:41.390Z,0
2023-02-14T03:57:21.873Z,0
2023-02-14T03:58:02.393Z,0
2023-02-14T03:58:42.822Z,0
2023-02-14T03:59:23.305Z,0
2023-02-14T04:00:03.836Z,0
2023-02-14T04:00:44.283Z,0
2023-02-14T04:01:24.803Z,0
2023-02-14T04:02:05.241Z,0
2023-02-14T04:02:45.716Z,0
2023-02-14T04:08:50.692Z,0
2023-02-14T04:09:31.162Z,0
2023-02-14T04:10:11.685Z,0
2023-02-14T04:10:52.186Z,0
2023-02-14T04:11:32.692Z,0
2023-02-14T04:12:13.137Z,0
2023-02-14T04:12:53.654Z,0
2023-02-14T04:13:34.092Z,0
2023-02-14T04:14:14.582Z,0
2023-02-14T04:14:55.081Z,0
2023-02-14T04:15:35.579Z,0
2023-02-14T04:23:03.008Z,0
2023-02-14T04:23:41.332Z,0
2023-02-14T04:24:21.858Z,0
2023-02-14T04:25:02.348Z,0
2023-02-14T04:25:42.835Z,0
2023-02-14T04:26:23.269Z,0
2023-02-14T04:27:03.759Z,0
2023-02-14T04:27:44.208Z,0
2023-02-14T04:28:24.671Z,0
2023-02-14T04:29:45.625Z,0
2023-02-14T04:37:10.901Z,0
2023-02-14T04:37:51.371Z,0
2023-02-14T04:38:31.856Z,0
2023-02-14T04:39:12.305Z,0
2023-02-14T04:39:52.774Z,0
2023-02-14T04:40:33.255Z,0
2023-02-14T04:41:13.768Z,0
2023-02-14T04:41:54.217Z,0
2023-02-14T04:42:34.754Z,0
2023-02-14T04:43:15.168Z,0
2023-02-14T04:43:55.681Z,0
2023-02-14T04:51:20.865Z,0
2023-02-14T04:52:01.366Z,0
2023-02-14T04:52:41.825Z,0
2023-02-14T04:53:22.361Z,0
2023-02-14T04:54:02.846Z,0
2023-02-14T04:54:44.106Z,0
2023-02-14T04:55:24.559Z,0
2023-02-14T04:56:05.029Z,0
2023-02-14T04:56:45.533Z,0
2023-02-14T05:03:30.942Z,0
2023-02-14T05:04:11.444Z,0
2023-02-14T05:04:51.921Z,0
2023-02-14T05:05:32.428Z,0
2023-02-14T05:06:12.918Z,0
2023-02-14T05:06:53.387Z,0
2023-02-14T05:07:33.887Z,0
2023-02-14T05:08:14.363Z,0
2023-02-14T05:08:54.863Z,0
2023-02-14T05:09:35.349Z,0
2023-02-14T05:10:15.880Z,0
2023-02-14T05:17:00.744Z,0
2023-02-14T05:17:41.215Z,0
2023-02-14T05:18:21.764Z,0
2023-02-14T05:19:02.210Z,0
2023-02-14T05:19:42.695Z,0
2023-02-14T05:20:23.201Z,0
2023-02-14T05:23:37.324Z,0
2023-02-14T05:24:17.831Z,0
2023-02-14T05:24:59.230Z,0
2023-02-14T05:25:39.770Z,0
2023-02-14T05:26:20.212Z,0
2023-02-14T05:27:00.711Z,0
2023-02-14T05:27:41.209Z,0
2023-02-14T05:28:21.660Z,0
2023-02-14T05:35:46.966Z,0
2023-02-14T05:36:27.458Z,0
2023-02-14T05:37:07.952Z,0
2023-02-14T05:37:48.450Z,0
2023-02-14T05:38:28.950Z,0
2023-02-14T05:39:09.451Z,0
2023-02-14T05:39:49.951Z,0
2023-02-14T05:40:30.496Z,0
2023-02-14T05:41:10.974Z,0
2023-02-14T05:41:51.516Z,0
2023-02-14T05:42:32.690Z,0
2023-02-14T05:43:13.154Z,0
2023-02-14T05:43:54.565Z,0
2023-02-14T05:44:35.080Z,0
2023-02-14T05:45:15.516Z,0
2023-02-14T05:45:55.974Z,0
2023-02-14T05:46:39.362Z,0
2023-02-14T05:51:22.705Z,0
2023-02-14T05:52:03.207Z,0
2023-02-14T05:52:43.705Z,0
2023-02-14T06:31:39.787Z,20
2023-02-14T06:32:20.217Z,20
2023-02-14T06:33:00.684Z,24
2023-02-14T06:33:41.134Z,24
2023-02-14T06:34:21.846Z,28
2023-02-14T06:35:02.356Z,28
2023-02-14T06:35:42.843Z,36
2023-02-14T06:36:24.045Z,36
2023-02-14T06:42:29.259Z,64
2023-02-14T06:43:09.748Z,68
2023-02-14T06:43:50.234Z,76
2023-02-14T06:44:30.725Z,76
2023-02-14T06:45:11.254Z,84
2023-02-14T06:45:51.798Z,88
2023-02-14T06:46:32.389Z,92
2023-02-14T06:47:12.837Z,96
2023-02-14T06:54:39.336Z,168
2023-02-14T06:55:19.908Z,172
2023-02-14T06:56:00.410Z,180
2023-02-14T06:56:40.964Z,188
2023-02-14T06:57:21.488Z,196
2023-02-14T06:58:01.995Z,208
2023-02-14T06:58:42.495Z,220
2023-02-14T06:59:23.036Z,228
2023-02-14T07:00:03.540Z,244
2023-02-14T07:00:44.065Z,256
2023-02-14T07:07:29.118Z,504
2023-02-14T07:08:09.604Z,548
2023-02-14T07:08:50.156Z,548
2023-02-14T07:09:33.339Z,564
2023-02-14T07:10:13.882Z,620
2023-02-14T07:16:59.078Z,936
2023-02-14T07:17:39.578Z,964
2023-02-14T07:18:20.102Z,1000
2023-02-14T07:19:00.536Z,1048
2023-02-14T07:19:41.049Z,1064
2023-02-14T07:20:21.543Z,1092
2023-02-14T07:21:02.437Z,1116
2023-02-14T07:21:42.518Z,1144
2023-02-14T07:22:23.053Z,1156
2023-02-14T07:23:03.581Z,1148
2023-02-14T07:23:44.082Z,1152
2023-02-14T07:28:29.221Z,1316
2023-02-14T07:29:09.705Z,1356
2023-02-14T07:29:50.336Z,1372
2023-02-14T07:30:30.886Z,1380
2023-02-14T07:31:11.463Z,1404
2023-02-14T07:31:53.021Z,1412
2023-02-14T07:32:33.284Z,1428
2023-02-14T07:33:13.746Z,1456
2023-02-14T07:33:54.296Z,1480
2023-02-14T07:40:39.638Z,1780
2023-02-14T07:41:20.175Z,1820
2023-02-14T07:42:00.716Z,1852
2023-02-14T07:42:41.266Z,1872
2023-02-14T07:43:21.788Z,1848
2023-02-14T07:44:02.319Z,1796
2023-02-14T07:44:42.884Z,1820
2023-02-14T07:45:24.406Z,1808
2023-02-14T07:51:29.237Z,1772
2023-02-14T07:52:09.747Z,1668
2023-02-14T07:52:51.451Z,1620
2023-02-14T07:53:32.194Z,1568
2023-02-14T07:54:12.734Z,1564
2023-02-14T07:54:53.281Z,1548
2023-02-14T07:55:33.780Z,1544
2023-02-14T07:59:39.218Z,1172
2023-02-14T08:00:19.918Z,1160
2023-02-14T08:01:00.871Z,1160
2023-02-14T08:01:40.968Z,1156
2023-02-14T08:02:21.509Z,1152
2023-02-14T08:03:02.029Z,1152
2023-02-14T08:03:42.560Z,1152
2023-02-14T08:04:23.018Z,1152
2023-02-14T08:05:03.648Z,1152
2023-02-14T08:05:44.071Z,1156
2023-02-14T08:11:09.210Z,1160
2023-02-14T08:11:49.727Z,1164
2023-02-14T08:12:30.292Z,1160
2023-02-14T08:13:10.760Z,1160
2023-02-14T08:13:51.293Z,1160
2023-02-14T08:14:31.809Z,1160
2023-02-14T08:15:12.317Z,1164
2023-02-14T08:15:52.897Z,1164
2023-02-14T08:16:33.376Z,1164
2023-02-14T08:17:13.945Z,1164
2023-02-14T08:17:54.399Z,1164
2023-02-14T08:23:59.326Z,1168
2023-02-14T08:24:39.853Z,1168
2023-02-14T08:25:20.382Z,1172
2023-02-14T08:26:00.901Z,1172
2023-02-14T08:26:41.500Z,1168
2023-02-14T08:27:22.097Z,1172
2023-02-14T08:28:03.201Z,1172
2023-02-14T08:28:43.111Z,1172
2023-02-14T08:29:23.628Z,1172
2023-02-14T08:30:04.177Z,1168
2023-02-14T08:35:29.113Z,1156
2023-02-14T08:36:09.666Z,1156
2023-02-14T08:36:50.122Z,1156
2023-02-14T08:37:30.722Z,1156
2023-02-14T08:38:11.229Z,1156
2023-02-14T08:38:51.805Z,1152
2023-02-14T08:39:34.308Z,1156
2023-02-14T08:45:39.202Z,1148
2023-02-14T08:46:19.874Z,1144
2023-02-14T08:47:00.398Z,1148
2023-02-14T08:47:40.800Z,1148
2023-02-14T08:48:21.318Z,1148
2023-02-14T08:49:01.846Z,1148
2023-02-14T08:49:42.424Z,1152
2023-02-14T08:50:22.935Z,1148
2023-02-14T08:51:03.508Z,1148
2023-02-14T08:58:30.471Z,1140
2023-02-14T08:59:09.941Z,1136
2023-02-14T08:59:50.517Z,1132
2023-02-14T09:00:31.019Z,1136
2023-02-14T09:01:11.518Z,1132
2023-02-14T09:01:52.025Z,1132
2023-02-14T09:02:32.501Z,1132
2023-02-14T09:03:13.270Z,1132
2023-02-14T09:03:53.891Z,1128
2023-02-14T09:04:34.435Z,1132
2023-02-14T09:08:00.497Z,1124
2023-02-14T09:08:42.068Z,1124
2023-02-14T09:09:22.785Z,1124
2023-02-14T09:10:03.313Z,1124
2023-02-14T09:10:43.864Z,1124
2023-02-14T09:11:24.407Z,1120
2023-02-14T09:16:49.472Z,1108
2023-02-14T09:17:29.947Z,1108
2023-02-14T09:18:10.462Z,1108
2023-02-14T09:18:50.937Z,1108
2023-02-14T09:19:31.452Z,1104
2023-02-14T09:20:11.932Z,1104
2023-02-14T09:20:52.496Z,1104
2023-02-14T09:21:32.981Z,1104
2023-02-14T09:22:13.494Z,1104
2023-02-14T09:22:54.033Z,1104
2023-02-14T09:27:39.436Z,1096
2023-02-14T09:28:19.969Z,1092
2023-02-14T09:29:00.485Z,1092
2023-02-14T09:29:41.313Z,1092
2023-02-14T09:30:21.939Z,1088
2023-02-14T09:31:02.670Z,1092
2023-02-14T09:31:43.017Z,1088
2023-02-14T09:32:23.497Z,1088
2023-02-14T09:33:04.008Z,1088
2023-02-14T09:37:51.228Z,1084
2023-02-14T09:38:31.811Z,1076
2023-02-14T09:39:12.330Z,1076
2023-02-14T09:39:53.718Z,1076
2023-02-14T09:40:34.404Z,1076
2023-02-14T09:45:59.486Z,1068
2023-02-14T09:46:39.910Z,1072
2023-02-14T09:47:20.444Z,1068
2023-02-14T09:48:00.980Z,1068
2023-02-14T09:48:41.532Z,1064
2023-02-14T09:49:22.181Z,1064
2023-02-14T09:50:02.642Z,1060
2023-02-14T09:50:43.106Z,1060
2023-02-14T09:51:23.612Z,1060
2023-02-14T09:52:04.127Z,1056
2023-02-14T09:57:29.323Z,1052
2023-02-14T09:58:10.080Z,1052
2023-02-14T09:58:50.472Z,1052
2023-02-14T09:59:31.850Z,1048
2023-02-14T10:00:12.619Z,1048
2023-02-14T10:00:53.399Z,1048
2023-02-14T10:01:33.925Z,1044
2023-02-14T10:07:39.405Z,1036
2023-02-14T10:08:19.965Z,1032
2023-02-14T10:09:00.449Z,1032
2023-02-14T10:09:41.138Z,1028
2023-02-14T10:11:02.372Z,1032
2023-02-14T10:11:42.818Z,1028
2023-02-14T10:12:23.345Z,1028
2023-02-14T10:13:03.839Z,1024
2023-02-14T10:13:44.453Z,1020
2023-02-14T10:19:49.436Z,1012
2023-02-14T10:20:29.955Z,1012
2023-02-14T10:21:10.508Z,1012
2023-02-14T10:21:51.055Z,1008
2023-02-14T10:22:32.173Z,1008
2023-02-14T10:23:12.670Z,1004
2023-02-14T10:23:53.233Z,1008
2023-02-14T10:24:33.737Z,1004
2023-02-14T10:25:14.422Z,1000
2023-02-14T10:31:19.627Z,992
2023-02-14T10:32:00.244Z,992
2023-02-14T10:34:13.866Z,984
2023-02-14T10:34:54.858Z,980
2023-02-14T10:35:36.035Z,984
2023-02-14T10:36:17.242Z,980
2023-02-14T10:39:36.792Z,972
2023-02-14T10:40:17.608Z,972
2023-02-14T10:40:58.173Z,968
2023-02-14T10:41:38.446Z,968
2023-02-14T10:43:52.250Z,964
2023-02-14T10:44:32.928Z,964
2023-02-14T10:45:13.637Z,964
2023-02-14T10:45:54.107Z,960
2023-02-14T10:46:34.734Z,960
2023-02-14T10:47:15.400Z,960
2023-02-14T10:47:56.159Z,960
2023-02-14T10:54:09.238Z,952
2023-02-14T10:54:49.009Z,952
2023-02-14T10:55:32.552Z,948
2023-02-14T10:56:10.163Z,948
2023-02-14T10:56:50.868Z,948
2023-02-14T10:57:31.573Z,948
2023-02-14T10:58:12.826Z,944
2023-02-14T10:58:53.376Z,940
2023-02-14T11:05:36.211Z,940
2023-02-14T11:06:16.769Z,940
2023-02-14T11:06:57.313Z,936
2023-02-14T11:07:37.932Z,936
2023-02-14T11:08:18.431Z,936
2023-02-14T11:08:59.003Z,936
2023-02-14T11:09:39.499Z,932
2023-02-14T11:10:20.090Z,932
2023-02-14T11:11:00.979Z,928
2023-02-14T11:11:41.125Z,932
2023-02-14T11:15:06.749Z,924
2023-02-14T11:15:47.739Z,928
2023-02-14T11:16:28.920Z,924
2023-02-14T11:17:10.357Z,920
2023-02-14T11:17:52.049Z,924
2023-02-14T11:21:16.411Z,916
2023-02-14T11:21:57.662Z,916
2023-02-14T11:22:38.376Z,916
2023-02-14T11:23:19.480Z,916
2023-02-14T11:24:00.132Z,916
2023-02-14T11:24:40.946Z,912
2023-02-14T11:26:45.848Z,912
2023-02-14T11:27:26.614Z,912
2023-02-14T11:28:07.627Z,912
2023-02-14T11:32:48.258Z,904
2023-02-14T11:34:42.879Z,900
2023-02-14T11:35:24.510Z,904
2023-02-14T11:36:05.698Z,904
2023-02-14T11:36:48.136Z,900
2023-02-14T11:39:32.986Z,896
2023-02-14T11:42:49.508Z,892
2023-02-14T11:43:28.564Z,892
2023-02-14T11:44:09.187Z,892
2023-02-14T11:44:50.115Z,892
2023-02-14T11:45:30.602Z,892
2023-02-14T11:46:11.325Z,892
2023-02-14T11:50:56.558Z,884
2023-02-14T11:51:37.495Z,884
2023-02-14T11:52:17.891Z,884
2023-02-14T11:52:58.420Z,884
2023-02-14T12:34:47.786Z,844
2023-02-14T12:37:21.599Z,844
2023-02-14T12:38:04.839Z,844
2023-02-14T12:38:42.492Z,844
2023-02-14T12:39:23.675Z,844
2023-02-14T12:40:04.228Z,844
2023-02-14T12:40:44.758Z,840
2023-02-14T12:41:25.283Z,840
2023-02-14T12:42:05.915Z,840
2023-02-14T12:48:11.148Z,828
2023-02-14T12:48:51.723Z,828
2023-02-14T12:49:32.216Z,832
2023-02-14T12:50:12.734Z,828
2023-02-14T12:50:53.243Z,828
2023-02-14T12:51:33.759Z,832
2023-02-14T12:52:14.293Z,832
2023-02-14T12:52:54.955Z,828
2023-02-14T12:53:35.496Z,828
2023-02-14T12:54:16.010Z,824
2023-02-14T13:01:24.610Z,820
2023-02-14T13:01:58.436Z,820
2023-02-14T13:02:39.045Z,820
2023-02-14T13:03:19.602Z,820
2023-02-14T13:04:00.236Z,820
2023-02-14T13:04:41.117Z,820
2023-02-14T13:05:21.343Z,820
2023-02-14T13:06:01.967Z,816
2023-02-14T13:06:42.523Z,816
2023-02-14T13:12:07.730Z,812
2023-02-14T13:12:48.306Z,808
2023-02-14T13:13:29.857Z,808
2023-02-14T13:14:10.245Z,808
2023-02-14T13:14:50.839Z,804
2023-02-14T13:18:04.624Z,800
2023-02-14T13:18:45.261Z,800
2023-02-14T13:19:25.791Z,796
2023-02-14T13:20:06.433Z,800
2023-02-14T13:21:27.939Z,796
2023-02-14T13:22:08.676Z,792
2023-02-14T13:22:49.358Z,796
2023-02-14T13:28:55.371Z,784
2023-02-14T13:29:36.029Z,784
2023-02-14T13:30:16.783Z,784
2023-02-14T13:30:57.312Z,780
2023-02-14T13:31:37.846Z,780
2023-02-14T13:32:18.757Z,780
2023-02-14T13:32:59.206Z,776
2023-02-14T13:33:40.793Z,776
2023-02-14T13:37:45.516Z,768
2023-02-14T13:38:26.312Z,768
2023-02-14T13:39:06.862Z,772
2023-02-14T13:39:47.551Z,764
2023-02-14T13:40:28.209Z,764
2023-02-14T13:41:08.763Z,768
2023-02-14T13:41:49.298Z,764
2023-02-14T13:42:30.301Z,764
2023-02-14T13:45:43.802Z,756
2023-02-14T13:46:24.399Z,756
2023-02-14T13:47:04.868Z,752
2023-02-14T13:47:45.351Z,752
2023-02-14T13:48:26.044Z,752
2023-02-14T13:49:47.194Z,744
2023-02-14T13:50:27.757Z,740
2023-02-14T13:51:08.245Z,736
2023-02-14T13:57:13.317Z,720
2023-02-14T13:57:53.921Z,720
2023-02-14T13:58:34.639Z,720
2023-02-14T13:59:15.179Z,716
2023-02-14T13:59:55.877Z,712
2023-02-14T14:00:36.443Z,712
2023-02-14T14:01:17.015Z,708
2023-02-14T14:01:57.635Z,708
2023-02-14T14:02:38.327Z,704
2023-02-14T14:06:04.592Z,696
2023-02-14T14:06:47.281Z,696
2023-02-14T14:07:27.746Z,692
2023-02-14T14:08:08.206Z,684
2023-02-14T14:13:33.645Z,684
2023-02-14T14:14:14.312Z,684
2023-02-14T14:14:55.845Z,680
2023-02-14T14:15:36.559Z,680
2023-02-14T14:16:17.331Z,680
2023-02-14T14:16:57.848Z,676
2023-02-14T14:17:38.580Z,672
2023-02-14T14:23:19.624Z,672
2023-02-14T14:24:00.629Z,672
2023-02-14T14:24:41.015Z,664
2023-02-14T14:25:21.674Z,664
2023-02-14T14:26:02.686Z,664
2023-02-14T14:26:43.462Z,668
2023-02-14T14:27:24.131Z,668
2023-02-14T14:35:35.436Z,664
2023-02-14T14:36:17.108Z,664
2023-02-14T14:36:58.373Z,668
2023-02-14T14:37:41.154Z,668
2023-02-14T14:38:22.511Z,668
2023-02-14T14:41:47.676Z,664
2023-02-14T14:42:29.041Z,668
2023-02-14T14:43:10.003Z,668
2023-02-14T14:43:51.188Z,668
2023-02-14T14:44:32.292Z,668
2023-02-14T14:47:57.454Z,672
2023-02-14T14:48:39.487Z,668
2023-02-14T14:49:21.325Z,664
2023-02-14T14:50:02.376Z,664
2023-02-14T14:52:48.313Z,660
2023-02-14T14:53:29.565Z,664
2023-02-14T14:54:11.696Z,664
2023-02-14T14:54:52.616Z,664
2023-02-14T14:57:37.671Z,660
2023-02-14T14:58:20.214Z,660
2023-02-14T14:59:00.219Z,660
2023-02-14T15:02:14.743Z,664
2023-02-14T15:02:54.813Z,660
2023-02-14T15:03:36.208Z,664
2023-02-14T15:04:16.833Z,656
2023-02-14T15:04:57.314Z,664
2023-02-14T15:05:37.851Z,664
2023-02-14T15:06:18.400Z,668
2023-02-14T15:06:58.922Z,672
2023-02-14T15:13:15.971Z,720
2023-02-14T15:13:56.574Z,744
2023-02-14T15:14:37.238Z,772
2023-02-14T15:15:17.791Z,796
2023-02-14T15:15:58.270Z,808
2023-02-14T15:16:38.908Z,824
2023-02-14T15:19:56.101Z,1424
2023-02-14T15:20:37.352Z,1744
2023-02-14T15:21:18.479Z,1776
2023-02-14T15:21:59.606Z,1748
2023-02-14T15:22:40.532Z,1724
2023-02-14T15:26:06.212Z,1712
2023-02-14T15:26:47.340Z,1732
2023-02-14T15:27:28.333Z,1776
2023-02-14T15:28:09.369Z,1788
2023-02-14T15:28:50.966Z,1832
2023-02-14T15:32:06.292Z,2000
2023-02-14T15:32:46.692Z,2004
2023-02-14T15:33:27.276Z,2008
2023-02-14T15:34:07.728Z,2024
2023-02-14T15:34:48.224Z,2004
2023-02-14T15:35:28.864Z,1976
2023-02-14T15:36:09.407Z,1944
2023-02-14T15:36:49.931Z,1908
2023-02-14T15:37:30.477Z,1884
2023-02-14T15:38:10.976Z,1836
2023-02-14T15:42:43.602Z,1604
2023-02-14T15:43:24.443Z,1584
2023-02-14T15:44:04.900Z,1544
2023-02-14T15:44:45.401Z,1532
2023-02-14T15:45:25.932Z,1504
2023-02-14T15:46:06.441Z,1468
2023-02-14T15:46:46.971Z,1440
2023-02-14T15:53:32.324Z,1056
2023-02-14T15:54:12.848Z,1028
2023-02-14T15:54:53.394Z,996
2023-02-14T15:55:33.872Z,972
2023-02-14T15:56:14.423Z,912
2023-02-14T15:56:54.924Z,840
2023-02-14T15:57:35.448Z,772
2023-02-14T15:58:15.963Z,720
2023-02-14T15:58:56.511Z,684
2023-02-14T15:59:40.309Z,648
2023-02-14T16:00:22.073Z,608
2023-02-14T16:01:02.900Z,580
2023-02-14T16:01:44.525Z,552
2023-02-14T16:02:23.731Z,524
2023-02-14T16:03:04.246Z,496
2023-02-14T16:03:44.712Z,476
2023-02-14T16:04:25.246Z,452
2023-02-14T16:05:05.752Z,432
2023-02-14T16:05:46.280Z,416
2023-02-14T16:06:26.778Z,396
2023-02-14T16:13:11.860Z,304
2023-02-14T16:13:52.350Z,296
2023-02-14T16:14:32.875Z,292
2023-02-14T16:15:13.440Z,284
2023-02-14T16:15:53.957Z,280
2023-02-14T16:16:34.466Z,272
2023-02-14T16:17:14.920Z,268
2023-02-14T16:17:55.500Z,260
2023-02-14T16:18:35.975Z,256
2023-02-14T16:19:16.466Z,248
2023-02-14T16:19:56.999Z,248
2023-02-14T16:22:35.329Z,224
2023-02-14T16:23:15.773Z,216
2023-02-14T16:23:56.814Z,212
2023-02-14T16:24:38.110Z,204
2023-02-14T16:25:18.342Z,200
2023-02-14T16:25:58.796Z,196
2023-02-14T16:26:39.534Z,188
2023-02-14T16:27:20.016Z,184
2023-02-14T16:32:45.541Z,140
2023-02-14T16:33:25.922Z,136
2023-02-14T16:34:06.437Z,132
2023-02-14T16:34:46.993Z,124
2023-02-14T16:35:29.805Z,120
2023-02-14T16:38:50.073Z,96
2023-02-14T16:39:30.565Z,92
2023-02-14T16:40:13.223Z,84
2023-02-14T16:40:51.756Z,80
2023-02-14T16:41:32.352Z,80
2023-02-14T16:42:12.799Z,76
2023-02-14T16:42:53.304Z,68
2023-02-14T16:43:33.824Z,64
2023-02-14T16:46:47.537Z,48
2023-02-14T16:47:28.026Z,44
2023-02-14T16:48:08.495Z,44
2023-02-14T16:48:49.042Z,36
2023-02-14T16:53:32.558Z,20
2023-02-14T16:54:13.059Z,20
2023-02-14T16:54:53.576Z,16
2023-02-14T16:55:34.067Z,16
2023-02-14T16:56:14.586Z,16
2023-02-14T16:56:55.110Z,16
2023-02-14T16:57:35.594Z,12
2023-02-14T16:58:16.090Z,8
2023-02-14T16:58:56.713Z,8
2023-02-14T16:59:37.142Z,8
2023-02-14T17:00:17.693Z,8
2023-02-14T17:05:42.629Z,0
2023-02-14T17:06:23.167Z,4
2023-02-14T17:07:03.719Z,4
2023-02-14T17:07:44.220Z,0
2023-02-14T17:08:24.722Z,0
2023-02-14T17:09:05.250Z,4
2023-02-14T17:09:45.747Z,4
2023-02-14T17:10:26.249Z,0
2023-02-14T17:11:06.752Z,0
2023-02-14T17:12:27.785Z,0
2023-02-14T17:19:12.877Z,0
2023-02-14T17:19:53.363Z,0
2023-02-14T17:20:33.899Z,0
2023-02-14T17:21:14.350Z,0
2023-02-14T17:22:35.389Z,0
2023-02-14T17:23:15.877Z,0
2023-02-14T17:23:56.380Z,0
2023-02-14T17:24:36.925Z,0
2023-02-14T17:25:17.923Z,0
2023-02-14T17:25:57.917Z,0
2023-02-14T17:32:03.037Z,0
2023-02-14T17:32:43.459Z,0
2023-02-14T17:33:24.028Z,0
2023-02-14T17:34:04.678Z,0
2023-02-14T17:34:45.167Z,0
2023-02-14T17:35:25.554Z,0
2023-02-14T17:36:06.101Z,0
2023-02-14T17:36:46.720Z,0
2023-02-14T17:37:27.362Z,0
2023-02-14T17:38:07.752Z,0
2023-02-14T17:44:52.791Z,0
2023-02-14T17:45:33.350Z,0
2023-02-14T17:46:13.932Z,0
2023-02-14T17:46:54.411Z,0
2023-02-14T17:47:34.987Z,0
2023-02-14T17:48:15.471Z,0
2023-02-14T17:48:56.071Z,0
2023-02-14T17:49:36.526Z,0
2023-02-14T17:50:17.112Z,0
2023-02-14T17:50:57.611Z,0
2023-02-14T18:34:32.946Z,0
2023-02-14T18:35:13.351Z,0
2023-02-14T18:35:53.870Z,0
2023-02-14T18:36:34.350Z,0
2023-02-14T18:37:14.808Z,0
2023-02-14T18:37:55.301Z,0
2023-02-14T18:38:35.806Z,0
2023-02-14T18:39:16.302Z,0
2023-02-14T18:39:56.822Z,0
2023-02-14T18:41:17.752Z,0
2023-02-14T18:48:43.172Z,0
2023-02-14T18:49:23.679Z,0
2023-02-14T18:50:04.183Z,0
2023-02-14T18:51:25.210Z,0
2023-02-14T18:52:05.713Z,0
2023-02-14T18:52:46.169Z,0
2023-02-14T18:53:26.647Z,0
2023-02-14T18:54:07.152Z,0
2023-02-14T18:54:47.617Z,0
2023-02-14T18:55:28.115Z,0
2023-02-14T19:02:13.142Z,0
2023-02-14T19:02:53.630Z,0
2023-02-14T19:03:34.139Z,0
2023-02-14T19:04:14.643Z,0
2023-02-14T19:04:55.210Z,0
2023-02-14T19:05:37.029Z,0
2023-02-14T19:06:16.180Z,0
2023-02-14T19:06:56.681Z,0
2023-02-14T19:07:37.152Z,0
2023-02-14T19:08:17.654Z,0
2023-02-14T19:08:58.137Z,0
2023-02-14T19:15:43.030Z,0
2023-02-14T19:16:23.484Z,0
2023-02-14T19:17:03.935Z,0
2023-02-14T19:17:44.464Z,0
2023-02-14T19:18:25.766Z,0
2023-02-14T19:19:05.433Z,0
2023-02-14T19:19:45.956Z,0
2023-02-14T19:20:26.435Z,0
2023-02-14T19:21:06.977Z,0
2023-02-14T19:21:47.430Z,0
2023-02-14T19:22:27.907Z,0
2023-02-14T19:29:12.855Z,0
2023-02-14T19:29:54.327Z,0
2023-02-14T19:30:35.881Z,0
2023-02-14T19:31:16.530Z,0
2023-02-14T19:31:56.919Z,0
2023-02-14T19:32:37.389Z,0
2023-02-14T19:33:17.916Z,0
2023-02-14T19:36:58.217Z,0
2023-02-14T19:37:38.576Z,0
2023-02-14T19:38:19.071Z,0
2023-02-14T19:38:59.556Z,0
2023-02-14T19:39:40.110Z,0
2023-02-14T19:40:21.810Z,0
2023-02-14T19:41:42.793Z,0
2023-02-14T19:49:08.184Z,0
2023-02-14T19:49:48.700Z,0
2023-02-14T19:50:30.804Z,0
2023-02-14T19:51:09.639Z,0
2023-02-14T19:51:50.118Z,0
2023-02-14T19:52:30.620Z,0
2023-02-14T19:53:11.110Z,0
2023-02-14T19:53:51.584Z,0
2023-02-14T19:54:32.077Z,0
2023-02-14T19:55:12.567Z,0
2023-02-14T19:55:53.069Z,0
2023-02-14T20:02:38.081Z,0
2023-02-14T20:03:18.492Z,0
2023-02-14T20:03:58.996Z,0
2023-02-14T20:04:39.461Z,0
2023-02-14T20:05:20.006Z,0
2023-02-14T20:06:00.462Z,0
2023-02-14T20:06:40.950Z,0
2023-02-14T20:07:21.436Z,0
2023-02-14T20:08:02.013Z,0